Arlington, Nebraska
Current Conditions -  °F | °C
As of 6:15 PM on Friday 28 Nov 2014 (Local Time) from KFET Reporting Station
Clear Clear  
Wind Chill:   Ceiling: Unl
Heat Index:   Visibility: 10mi
Dew Point:   Wind: 7mph
Humidity: 60%   Direction: 140°SE
Pressure: 29.64"   Gusts: NA
Location:  41.45°N, 96.35°W
Report Text: KFET 290015Z AUTO 14006KT 10SM CLR 07/00 A2964 RMK AO2 T00731001
Loading
Personal Weather Stations






























Interactive Weather Map New forecast layout! Learn more

10-Day Weather Forecast

Advertisements
Track Severe Weather on mobile